Time;durP1;ratioP1;P1;durP2;ratioP2;P2;SDS_P1;SDS_P2;PMS_P1;PMS_P2;Temp;Humidity;BMP_temperature;BMP_pressure;BME280_temperature;BME280_humidity;BME280_pressure;Samples;Min_cycle;Max_cycle;Signal;HPM_P1;HPM_P2
2020/12/22 00:00:51;;;;;;;83.70;37.67;;;1.00;99.90;;;;;;5185524;27;20088;-88
2020/12/22 00:03:42;;;;;;;69.97;35.42;;;1.00;99.90;;;;;;5155232;27;20179;-88
2020/12/22 00:06:24;;;;;;;68.95;34.33;;;1.00;99.90;;;;;;5170685;27;20087;-89
2020/12/22 00:09:15;;;;;;;79.18;38.88;;;1.00;99.90;;;;;;5165793;27;20090;-88
2020/12/22 00:11:53;;;;;;;78.25;37.70;;;1.00;99.90;;;;;;5178534;27;20441;-88
2020/12/22 00:14:44;;;;;;;74.70;37.15;;;1.00;99.90;;;;;;5127833;27;20099;-88
2020/12/22 00:17:23;;;;;;;78.53;36.58;;;0.90;99.90;;;;;;5157203;27;20091;-88
2020/12/22 00:20:14;;;;;;;71.05;34.53;;;1.00;99.90;;;;;;5171390;27;20487;-89
2020/12/22 00:22:53;;;;;;;71.20;36.40;;;1.00;99.90;;;;;;5122138;28;20095;-88
2020/12/22 00:25:45;;;;;;;69.05;34.80;;;1.00;99.90;;;;;;5133586;28;20138;-88
2020/12/22 00:28:24;;;;;;;72.47;36.55;;;1.00;99.90;;;;;;5174344;27;20106;-88
2020/12/22 00:31:15;;;;;;;76.95;37.75;;;1.00;99.90;;;;;;5155222;27;20484;-88
2020/12/22 00:33:53;;;;;;;75.70;37.40;;;1.00;99.90;;;;;;5186792;27;20098;-88
2020/12/22 00:36:46;;;;;;;73.25;38.20;;;1.00;99.90;;;;;;5128644;27;20110;-88
2020/12/22 00:39:25;;;;;;;77.87;38.58;;;1.00;99.90;;;;;;5158273;27;20172;-88
2020/12/22 00:42:16;;;;;;;76.85;39.92;;;1.00;99.90;;;;;;5140608;27;20114;-88
2020/12/22 00:45:07;;;;;;;77.68;39.22;;;1.00;99.90;;;;;;5139414;27;20484;-88
2020/12/22 00:47:57;;;;;;;85.45;43.83;;;1.00;99.90;;;;;;5152704;27;20099;-88
2020/12/22 00:50:36;;;;;;;84.97;42.95;;;1.00;99.90;;;;;;5195335;27;20175;-88
2020/12/22 00:53:27;;;;;;;89.40;42.83;;;1.00;99.90;;;;;;5144658;27;20152;-89
2020/12/22 00:56:18;;;;;;;90.62;42.92;;;1.00;99.90;;;;;;5134339;27;20087;-88
2020/12/22 00:59:09;;;;;;;84.82;44.13;;;1.00;99.90;;;;;;5151259;27;20079;-88
2020/12/22 01:01:48;;;;;;;83.32;43.35;;;1.00;99.90;;;;;;5186811;27;20102;-88
2020/12/22 01:04:39;;;;;;;87.90;42.58;;;1.00;99.90;;;;;;5196991;27;20106;-88
2020/12/22 01:07:18;;;;;;;84.60;42.08;;;1.00;99.90;;;;;;5138953;27;20102;-88
2020/12/22 01:10:09;;;;;;;87.65;42.40;;;1.00;99.90;;;;;;5171944;27;20094;-89
2020/12/22 01:12:49;;;;;;;79.75;40.58;;;1.00;99.90;;;;;;5179704;27;20499;-88
2020/12/22 01:15:53;;;;;;;84.22;41.83;;;1.00;99.90;;;;;;5120767;28;20095;-88
2020/12/22 01:18:32;;;;;;;81.03;42.08;;;1.00;99.90;;;;;;5149203;27;20090;-88
2020/12/22 01:21:23;;;;;;;78.60;39.78;;;1.00;99.90;;;;;;4826618;27;20094;-88
2020/12/22 01:24:04;;;;;;;74.78;37.13;;;1.10;99.90;;;;;;5133270;27;20091;-88
2020/12/22 01:26:57;;;;;;;66.00;35.33;;;1.10;99.90;;;;;;5179050;27;20109;-88
2020/12/22 01:29:35;;;;;;;69.28;34.25;;;1.10;99.90;;;;;;5135775;28;20099;-88
2020/12/22 01:32:26;;;;;;;67.95;35.28;;;1.10;99.90;;;;;;5138091;27;20091;-89
2020/12/22 01:35:04;;;;;;;59.83;28.98;;;1.20;99.90;;;;;;5172331;27;20092;-88
2020/12/22 01:37:55;;;;;;;52.92;27.50;;;1.20;99.90;;;;;;5127430;27;20110;-89
2020/12/22 01:40:33;;;;;;;54.28;26.67;;;1.20;99.90;;;;;;5121914;28;20115;-88
2020/12/22 01:43:24;;;;;;;54.33;27.05;;;1.30;99.90;;;;;;5127410;27;20091;-89
2020/12/22 01:46:03;;;;;;;49.92;26.87;;;1.40;99.90;;;;;;5157990;27;20107;-88
2020/12/22 01:48:54;;;;;;;53.17;26.92;;;1.40;99.90;;;;;;5164963;27;20091;-88
2020/12/22 01:51:32;;;;;;;54.67;27.27;;;1.50;99.90;;;;;;5136941;28;20154;-89
2020/12/22 01:54:23;;;;;;;49.10;26.10;;;1.50;99.90;;;;;;5133707;28;20808;-88
2020/12/22 01:57:09;;;;;;;50.75;26.73;;;1.50;99.90;;;;;;5158602;27;20474;-89
2020/12/22 02:00:00;;;;;;;50.10;25.90;;;1.50;99.90;;;;;;5103292;28;20565;-89
2020/12/22 02:02:51;;;;;;;46.83;24.75;;;1.60;99.90;;;;;;5168946;27;20170;-89
2020/12/22 02:05:29;;;;;;;48.42;25.15;;;1.60;99.90;;;;;;5127418;27;20461;-88
2020/12/22 02:08:20;;;;;;;48.97;23.30;;;1.70;99.90;;;;;;5172561;27;20091;-89
2020/12/22 02:10:58;;;;;;;48.50;24.63;;;1.70;99.90;;;;;;5104633;28;20108;-89
2020/12/22 02:13:49;;;;;;;48.83;26.48;;;1.70;99.90;;;;;;5163183;27;20101;-89
2020/12/22 02:16:27;;;;;;;53.97;28.33;;;1.70;99.90;;;;;;5142737;27;20098;-89
2020/12/22 02:19:18;;;;;;;48.72;27.15;;;1.70;99.90;;;;;;5137715;28;20079;-89
2020/12/22 02:21:56;;;;;;;52.88;27.13;;;1.70;99.90;;;;;;5138722;27;20115;-89
2020/12/22 02:24:50;;;;;;;53.38;28.87;;;1.70;99.90;;;;;;5191118;27;20094;-89
2020/12/22 02:27:28;;;;;;;45.75;26.75;;;1.70;99.90;;;;;;5142626;27;20095;-89
2020/12/22 02:30:19;;;;;;;57.33;29.12;;;1.70;99.90;;;;;;5116820;28;20092;-89
2020/12/22 02:32:57;;;;;;;48.55;25.23;;;1.70;99.90;;;;;;5156821;27;20109;-89
2020/12/22 02:35:48;;;;;;;54.00;28.60;;;1.70;99.90;;;;;;5133381;28;20172;-89
2020/12/22 02:38:26;;;;;;;51.72;27.55;;;1.70;99.90;;;;;;5141368;27;20099;-89
2020/12/22 02:41:17;;;;;;;54.10;28.42;;;1.70;99.90;;;;;;5154781;27;20488;-90
2020/12/22 02:43:56;;;;;;;52.03;27.45;;;1.70;99.90;;;;;;5179099;27;20151;-89
2020/12/22 02:46:47;;;;;;;50.80;27.13;;;1.70;99.90;;;;;;5152112;27;20174;-89
2020/12/22 02:49:25;;;;;;;59.22;28.12;;;1.70;99.90;;;;;;5125412;27;20109;-89
2020/12/22 02:52:16;;;;;;;48.47;26.85;;;1.70;99.90;;;;;;5158466;27;20087;-89
2020/12/22 02:54:54;;;;;;;52.13;26.40;;;1.70;99.90;;;;;;5186147;27;20109;-89
2020/12/22 02:57:46;;;;;;;49.60;26.20;;;1.70;99.90;;;;;;5142729;27;20103;-89
2020/12/22 03:00:24;;;;;;;50.55;26.37;;;1.70;99.90;;;;;;5159018;27;20094;-89
2020/12/22 03:03:15;;;;;;;54.30;26.85;;;1.70;99.90;;;;;;5172453;27;20394;-89
2020/12/22 03:05:53;;;;;;;52.25;26.95;;;1.60;99.90;;;;;;5184860;27;20094;-89
2020/12/22 03:08:44;;;;;;;56.13;26.73;;;1.60;99.90;;;;;;5159524;27;20098;-89
2020/12/22 03:11:23;;;;;;;51.75;25.62;;;1.60;99.90;;;;;;5152365;27;20095;-89
2020/12/22 03:14:14;;;;;;;52.90;27.15;;;1.60;99.90;;;;;;5177860;27;20412;-89
2020/12/22 03:16:52;;;;;;;49.03;26.58;;;1.60;99.90;;;;;;5089720;28;20186;-89
2020/12/22 03:19:44;;;;;;;54.20;28.52;;;1.60;99.90;;;;;;5166984;27;20170;-89
2020/12/22 03:22:22;;;;;;;56.25;27.85;;;1.50;99.90;;;;;;5175795;27;20090;-89
2020/12/22 03:25:13;;;;;;;58.25;29.17;;;1.60;99.90;;;;;;5174251;27;20094;-89
2020/12/22 03:27:51;;;;;;;54.65;27.92;;;1.60;99.90;;;;;;5137391;28;20144;-90
2020/12/22 03:30:43;;;;;;;47.05;26.23;;;1.60;99.90;;;;;;5154525;27;20110;-89
2020/12/22 03:33:21;;;;;;;50.00;26.42;;;1.60;99.90;;;;;;5152675;27;20155;-89
2020/12/22 03:36:11;;;;;;;50.17;26.55;;;1.60;99.90;;;;;;5134627;28;20118;-90
2020/12/22 03:38:50;;;;;;;47.85;27.62;;;1.70;99.90;;;;;;5170406;27;20099;-89
2020/12/22 03:41:44;;;;;;;45.17;24.77;;;1.70;99.90;;;;;;5121092;27;20400;-90
2020/12/22 03:44:23;;;;;;;49.40;27.15;;;1.80;99.90;;;;;;5158852;27;20134;-90
2020/12/22 03:47:15;;;;;;;46.22;23.60;;;1.80;99.90;;;;;;5127390;27;20107;-90
2020/12/22 03:49:54;;;;;;;43.92;23.08;;;1.80;99.90;;;;;;5126347;27;20562;-90
2020/12/22 03:52:45;;;;;;;41.40;21.58;;;1.80;99.90;;;;;;5192415;27;20121;-90
2020/12/22 03:55:23;;;;;;;39.80;21.33;;;1.90;99.90;;;;;;5164093;27;20098;-90
2020/12/22 03:58:13;;;;;;;37.42;19.45;;;1.90;99.90;;;;;;5142775;27;20095;-90
2020/12/22 04:00:52;;;;;;;37.92;20.52;;;1.90;99.90;;;;;;5162946;27;20190;-90
2020/12/22 04:03:43;;;;;;;37.75;19.87;;;2.00;99.90;;;;;;5154638;27;20088;-90
2020/12/22 04:06:21;;;;;;;37.65;19.83;;;2.00;99.90;;;;;;5208036;27;20117;-90
2020/12/22 04:09:12;;;;;;;37.85;17.40;;;2.00;99.90;;;;;;5162379;27;20109;-90
2020/12/22 04:11:51;;;;;;;37.30;18.33;;;2.00;99.90;;;;;;5128875;27;20110;-90
2020/12/22 04:14:42;;;;;;;33.13;18.00;;;2.00;99.90;;;;;;5127574;27;20147;-90
2020/12/22 04:17:20;;;;;;;37.33;20.15;;;2.10;99.90;;;;;;5158984;27;20106;-90
2020/12/22 04:20:11;;;;;;;72.05;28.73;;;2.10;99.90;;;;;;5162646;27;20098;-90
2020/12/22 04:22:49;;;;;;;53.97;19.20;;;2.10;99.90;;;;;;5177717;27;20142;-90
2020/12/22 04:25:40;;;;;;;39.30;16.90;;;2.20;99.90;;;;;;5128058;27;20091;-89
2020/12/22 04:28:18;;;;;;;36.10;14.95;;;2.20;99.90;;;;;;5168589;27;20106;-88
2020/12/22 04:31:09;;;;;;;30.02;14.05;;;2.20;99.90;;;;;;5154840;27;20477;-88
2020/12/22 04:33:52;;;;;;;26.08;13.73;;;2.30;99.90;;;;;;5139151;27;20088;-89
2020/12/22 04:36:45;;;;;;;26.65;13.43;;;2.30;99.90;;;;;;5131325;27;20095;-89
2020/12/22 04:39:26;;;;;;;26.52;13.55;;;2.40;99.90;;;;;;5140711;27;20135;-89
2020/12/22 04:42:17;;;;;;;25.23;12.30;;;2.40;99.90;;;;;;5139409;27;20091;-89
2020/12/22 04:44:56;;;;;;;27.23;13.10;;;2.40;99.90;;;;;;5117639;28;20107;-89
2020/12/22 04:47:48;;;;;;;25.40;12.40;;;2.50;99.90;;;;;;5171784;27;20101;-88
2020/12/22 04:50:26;;;;;;;24.92;11.95;;;2.50;99.90;;;;;;5127592;27;20097;-89
2020/12/22 04:53:17;;;;;;;27.77;13.52;;;2.50;99.90;;;;;;5163207;27;20098;-89
2020/12/22 04:55:55;;;;;;;31.98;15.77;;;2.60;99.90;;;;;;5190390;27;20152;-88
2020/12/22 04:58:48;;;;;;;32.10;14.23;;;2.60;99.90;;;;;;5176215;27;20106;-89
2020/12/22 05:01:27;;;;;;;37.28;15.15;;;2.60;99.90;;;;;;5194694;27;20099;-89
2020/12/22 05:04:18;;;;;;;38.20;16.75;;;2.70;99.90;;;;;;5179935;27;20139;-88
2020/12/22 05:06:56;;;;;;;31.37;14.13;;;2.60;99.90;;;;;;5136313;28;20110;-88
2020/12/22 05:09:47;;;;;;;131.37;56.17;;;2.70;99.90;;;;;;5134023;28;20095;-88
2020/12/22 05:12:26;;;;;;;122.70;63.40;;;2.70;99.90;;;;;;5164183;27;20183;-89
2020/12/22 05:15:17;;;;;;;77.85;36.13;;;2.70;99.90;;;;;;5175126;27;20101;-88
2020/12/22 05:17:57;;;;;;;47.50;17.12;;;2.80;99.90;;;;;;5137216;28;20103;-88
2020/12/22 05:20:50;;;;;;;35.28;14.45;;;2.80;99.90;;;;;;5165895;27;20091;-89
2020/12/22 05:23:29;;;;;;;28.17;13.15;;;2.80;99.90;;;;;;5194457;27;20155;-89
2020/12/22 05:26:23;;;;;;;25.95;13.45;;;2.80;99.90;;;;;;5148509;27;20091;-88
2020/12/22 05:29:15;;;;;;;21.58;12.35;;;2.90;99.90;;;;;;5134536;27;20714;-88
2020/12/22 05:32:06;;;;;;;24.30;11.80;;;2.90;99.90;;;;;;5115896;28;20083;-89
2020/12/22 05:34:44;;;;;;;24.48;12.50;;;3.00;99.90;;;;;;5142434;27;20131;-88
2020/12/22 05:37:39;;;;;;;30.37;16.20;;;3.00;99.90;;;;;;5178471;27;20162;-89
2020/12/22 05:40:19;;;;;;;45.83;26.17;;;3.00;99.90;;;;;;5142380;27;20095;-89
2020/12/22 05:43:09;;;;;;;68.60;36.58;;;3.20;99.90;;;;;;5176531;27;20132;-89
2020/12/22 05:45:49;;;;;;;86.93;46.35;;;3.20;99.90;;;;;;5136450;28;20512;-89
2020/12/22 05:48:40;;;;;;;59.38;35.88;;;3.10;99.90;;;;;;5186319;27;20098;-88
2020/12/22 05:51:18;;;;;;;25.95;14.13;;;3.20;99.90;;;;;;5128949;27;20154;-89
2020/12/22 05:54:11;;;;;;;24.83;14.48;;;3.20;99.90;;;;;;4820180;27;20082;-89
2020/12/22 05:57:04;;;;;;;34.28;21.77;;;3.20;99.90;;;;;;5146490;27;20176;-89
2020/12/22 05:59:59;;;;;;;21.07;12.43;;;3.30;99.90;;;;;;5139858;27;20831;-89
2020/12/22 06:02:39;;;;;;;28.83;14.63;;;3.30;99.90;;;;;;5142052;27;20584;-90
2020/12/22 06:05:29;;;;;;;25.02;12.80;;;3.30;99.90;;;;;;5133471;28;20123;-89
2020/12/22 06:08:12;;;;;;;60.38;25.17;;;3.30;99.90;;;;;;5210232;27;20139;-90
2020/12/22 06:11:03;;;;;;;50.65;22.80;;;3.40;99.90;;;;;;5139504;27;20142;-91
2020/12/22 06:13:42;;;;;;;25.62;13.90;;;3.40;99.90;;;;;;5173333;27;20101;-92
2020/12/22 06:16:33;;;;;;;22.87;12.52;;;3.40;99.90;;;;;;5183564;27;20162;-91
2020/12/22 06:19:14;;;;;;;25.05;12.95;;;3.50;99.90;;;;;;5139352;27;20103;-92
2020/12/22 06:22:05;;;;;;;24.33;12.27;;;3.50;99.90;;;;;;5154333;27;20092;-92
2020/12/22 06:24:44;;;;;;;22.73;12.43;;;3.50;99.90;;;;;;5168459;27;20507;-91
2020/12/22 06:27:35;;;;;;;27.70;13.55;;;3.50;99.90;;;;;;5153655;27;20087;-91
2020/12/22 06:30:14;;;;;;;23.10;12.75;;;3.60;99.90;;;;;;5150654;27;20091;-91
2020/12/22 06:33:24;;;;;;;23.42;13.00;;;3.60;99.90;;;;;;5166872;27;20156;-92
2020/12/22 06:36:13;;;;;;;24.73;11.70;;;3.70;99.90;;;;;;5142157;27;20140;-91
2020/12/22 06:39:04;;;;;;;18.05;10.13;;;3.70;99.90;;;;;;5119875;28;20091;-92
2020/12/22 06:41:45;;;;;;;28.42;11.40;;;3.80;99.90;;;;;;5179844;27;20095;-91
2020/12/22 06:44:37;;;;;;;23.67;11.98;;;3.80;99.90;;;;;;5194030;27;20090;-91
2020/12/22 06:47:23;;;;;;;25.77;12.10;;;3.90;99.90;;;;;;5142592;27;20088;-91
2020/12/22 06:50:55;;;;;;;22.25;11.18;;;3.80;99.90;;;;;;5156835;27;20106;-91
2020/12/22 06:53:41;;;;;;;19.65;9.65;;;3.90;99.90;;;;;;5120205;28;20139;-90
2020/12/22 06:56:47;;;;;;;17.00;9.32;;;3.90;99.90;;;;;;5124130;28;20392;-91
2020/12/22 06:59:42;;;;;;;22.48;8.98;;;4.00;99.90;;;;;;5151892;27;20099;-92
2020/12/22 07:02:38;;;;;;;20.45;9.48;;;4.00;99.90;;;;;;5139986;27;20208;-92
2020/12/22 07:05:37;;;;;;;26.25;9.90;;;4.10;99.90;;;;;;5173391;27;20113;-92
2020/12/22 07:08:31;;;;;;;17.77;8.82;;;4.10;99.90;;;;;;5159732;27;20150;-92
2020/12/22 07:11:19;;;;;;;17.58;8.82;;;4.10;99.90;;;;;;5183764;27;20095;-91
2020/12/22 07:14:23;;;;;;;17.45;8.68;;;4.20;99.90;;;;;;5151242;27;20114;-92
2020/12/22 07:17:05;;;;;;;17.00;8.13;;;4.20;99.90;;;;;;5167189;27;20110;-92
2020/12/22 07:19:59;;;;;;;18.08;8.52;;;4.20;99.90;;;;;;5106341;28;20395;-91
2020/12/22 07:22:37;;;;;;;14.73;7.80;;;4.30;99.90;;;;;;5158645;27;20091;-92
2020/12/22 07:25:36;;;;;;;16.48;8.35;;;4.20;99.90;;;;;;5157057;27;20098;-93
2020/12/22 07:28:15;;;;;;;15.07;8.48;;;4.30;99.90;;;;;;5173847;27;20873;-93
2020/12/22 07:31:12;;;;;;;12.23;7.35;;;4.20;99.90;;;;;;5168785;27;20091;-91
2020/12/22 07:33:54;;;;;;;16.02;8.60;;;4.30;99.90;;;;;;5130484;27;20095;-89
2020/12/22 07:36:51;;;;;;;22.08;8.73;;;4.20;99.90;;;;;;5173096;27;20226;-92
2020/12/22 07:39:33;;;;;;;18.30;7.95;;;4.30;99.90;;;;;;5153116;27;20095;-93
2020/12/22 07:42:34;;;;;;;16.15;7.80;;;4.30;99.90;;;;;;5181032;27;20086;-92
2020/12/22 07:45:21;;;;;;;17.17;8.63;;;4.30;99.90;;;;;;5160091;27;20094;-92
2020/12/22 07:48:24;;;;;;;18.02;9.30;;;4.40;99.90;;;;;;5133994;28;20172;-93
2020/12/22 07:51:20;;;;;;;17.23;7.78;;;4.40;99.90;;;;;;5113064;27;20094;-92
2020/12/22 07:54:14;;;;;;;26.12;8.07;;;4.40;99.90;;;;;;5133164;28;20113;-92
2020/12/22 07:56:57;;;;;;;15.75;7.57;;;4.40;99.90;;;;;;5157288;27;20099;-91
2020/12/22 07:59:51;;;;;;;15.63;7.50;;;4.40;99.90;;;;;;5139897;27;20389;-90
2020/12/22 08:02:32;;;;;;;17.02;8.13;;;4.40;99.90;;;;;;5160148;27;20142;-91
2020/12/22 08:05:30;;;;;;;18.73;8.02;;;4.40;99.90;;;;;;5131694;27;20079;-89
2020/12/22 08:08:09;;;;;;;16.77;8.43;;;4.40;99.90;;;;;;5165164;27;20358;-92
2020/12/22 08:11:05;;;;;;;16.33;8.32;;;4.40;99.90;;;;;;5145809;27;20179;-91
2020/12/22 08:13:47;;;;;;;15.15;8.68;;;4.50;99.90;;;;;;5154444;27;20098;-92
2020/12/22 08:16:47;;;;;;;14.35;7.90;;;4.50;99.90;;;;;;5119692;27;20267;-91
2020/12/22 08:19:39;;;;;;;17.48;8.20;;;4.50;99.90;;;;;;5177297;27;20186;-90
2020/12/22 08:22:34;;;;;;;18.42;10.20;;;4.60;99.90;;;;;;5154926;27;20091;-93
2020/12/22 08:25:30;;;;;;;17.95;8.82;;;4.60;99.90;;;;;;5202825;27;20170;-92
2020/12/22 08:28:35;;;;;;;14.40;8.05;;;4.50;99.90;;;;;;5192507;27;20107;-94
2020/12/22 08:31:40;;;;;;;18.40;9.52;;;4.60;99.90;;;;;;5174574;27;20099;-92
2020/12/22 08:34:34;;;;;;;17.90;8.43;;;4.60;99.90;;;;;;5152535;27;20106;-92
2020/12/22 08:37:14;;;;;;;18.67;9.65;;;4.60;99.90;;;;;;5144541;27;20420;-93
2020/12/22 08:40:13;;;;;;;19.87;10.55;;;4.70;99.90;;;;;;5161150;27;20094;-91
2020/12/22 08:42:55;;;;;;;17.58;8.85;;;4.60;99.90;;;;;;5136820;28;20103;-93
2020/12/22 08:45:42;;;;;;;;;;;4.60;99.90;;;;;;5111461;28;20156;-93
2020/12/22 08:48:49;;;;;;;19.55;8.77;;;4.70;99.90;;;;;;5162551;27;19958;-94
2020/12/22 08:51:45;;;;;;;17.90;8.55;;;4.70;99.90;;;;;;5166569;27;20105;-95
2020/12/22 08:54:46;;;;;;;14.63;8.88;;;4.80;99.90;;;;;;5160519;27;20504;-91
2020/12/22 08:57:51;;;;;;;18.48;8.55;;;4.70;99.90;;;;;;5144118;27;20148;-91
2020/12/22 09:00:54;;;;;;;18.40;9.82;;;4.70;99.90;;;;;;5174007;27;20094;-91
2020/12/22 09:03:40;;;;;;;20.40;10.27;;;4.80;99.90;;;;;;5158410;27;20094;-92
2020/12/22 09:06:58;;;;;;;15.65;8.57;;;4.80;99.90;;;;;;5112858;28;20111;-91
2020/12/22 09:10:06;;;;;;;14.27;8.30;;;4.70;99.90;;;;;;5176427;27;20178;-92
2020/12/22 09:13:13;;;;;;;16.42;9.45;;;4.80;99.90;;;;;;5174264;27;20461;-91
2020/12/22 09:15:55;;;;;;;17.37;9.55;;;4.80;99.90;;;;;;5157954;27;20091;-91
2020/12/22 09:19:05;;;;;;;16.73;9.25;;;4.90;99.90;;;;;;5140762;27;20163;-92
2020/12/22 09:21:47;;;;;;;16.50;9.23;;;4.90;99.90;;;;;;5152179;27;20092;-92
2020/12/22 09:24:44;;;;;;;21.80;8.77;;;4.90;99.90;;;;;;5153913;27;20101;-92
2020/12/22 09:27:44;;;;;;;14.50;9.15;;;4.90;99.90;;;;;;5132536;27;20103;-92
2020/12/22 09:30:42;;;;;;;16.33;10.00;;;4.90;99.90;;;;;;5117731;28;20096;-91
2020/12/22 09:33:24;;;;;;;20.10;10.60;;;4.90;99.90;;;;;;5173110;27;20091;-91
2020/12/22 09:36:21;;;;;;;17.42;10.18;;;4.90;99.90;;;;;;5163834;27;20118;-93
2020/12/22 09:39:22;;;;;;;19.35;9.05;;;5.00;99.90;;;;;;5175924;27;20090;-91
2020/12/22 09:42:14;;;;;;;15.88;7.87;;;5.00;99.90;;;;;;5154593;27;20176;-93
2020/12/22 09:44:56;;;;;;;21.00;11.35;;;5.00;99.90;;;;;;5138193;27;20091;-92
2020/12/22 09:47:47;;;;;;;18.30;9.13;;;5.10;99.90;;;;;;5171942;27;20107;-93
2020/12/22 09:50:34;;;;;;;19.67;8.75;;;5.10;99.90;;;;;;5178185;27;20138;-93
2020/12/22 09:53:33;;;;;;;11.45;6.75;;;5.20;99.90;;;;;;5160238;27;20102;-92
2020/12/22 09:56:15;;;;;;;15.38;7.60;;;5.20;99.90;;;;;;5126430;27;20091;-93
2020/12/22 09:59:12;;;;;;;13.75;6.80;;;5.20;99.90;;;;;;5120049;28;20112;-92
2020/12/22 10:01:55;;;;;;;13.20;7.50;;;5.30;99.90;;;;;;5161822;27;20142;-93
2020/12/22 10:04:52;;;;;;;13.93;6.95;;;5.30;99.90;;;;;;5162258;27;20094;-92
2020/12/22 10:07:37;;;;;;;14.80;7.70;;;5.40;99.90;;;;;;5145186;27;20130;-93
2020/12/22 10:10:36;;;;;;;16.35;8.55;;;5.40;99.90;;;;;;5131150;27;20110;-93
2020/12/22 10:13:33;;;;;;;23.70;11.05;;;5.40;99.90;;;;;;5108484;28;20092;-93
2020/12/22 10:16:30;;;;;;;12.45;7.85;;;5.50;99.90;;;;;;5150888;27;20106;-93
2020/12/22 10:19:15;;;;;;;16.90;9.55;;;5.50;99.90;;;;;;5172126;27;20463;-92
2020/12/22 10:22:12;;;;;;;16.25;8.02;;;5.50;99.90;;;;;;5152914;27;20554;-92
2020/12/22 10:24:54;;;;;;;23.00;8.63;;;5.60;99.90;;;;;;5143924;27;20373;-92
2020/12/22 10:27:54;;;;;;;19.40;9.52;;;5.50;99.90;;;;;;5109366;28;20106;-92
2020/12/22 10:30:37;;;;;;;21.48;10.52;;;5.60;99.90;;;;;;5142523;27;20172;-92
2020/12/22 10:33:47;;;;;;;11.32;6.28;;;5.60;99.90;;;;;;5158599;27;20083;-92
2020/12/22 10:36:32;;;;;;;13.02;6.15;;;5.80;99.90;;;;;;5173838;27;20175;-92
2020/12/22 10:39:36;;;;;;;15.32;7.70;;;5.80;99.90;;;;;;5188543;27;20110;-91
2020/12/22 10:42:24;;;;;;;17.25;9.70;;;5.80;99.90;;;;;;4778611;27;20091;-92
2020/12/22 10:45:11;;;;;;;14.00;8.05;;;5.80;99.90;;;;;;5135727;27;20502;-91
2020/12/22 10:48:06;;;;;;;10.60;6.22;;;5.80;99.90;;;;;;5157946;27;20105;-94
2020/12/22 10:51:20;;;;;;;;;;;;;;;;;;;;;
2020/12/22 10:54:09;;;;;;;12.57;6.22;;;5.80;99.90;;;;;;5187139;27;20115;-94
2020/12/22 10:57:14;;;;;;;13.88;7.20;;;5.90;99.90;;;;;;5130462;27;20107;-90
2020/12/22 11:00:17;;;;;;;15.25;8.13;;;5.90;99.90;;;;;;5106417;28;20536;-93
2020/12/22 11:03:23;;;;;;;16.45;9.25;;;5.90;99.90;;;;;;5053178;28;20107;-94
2020/12/22 11:09:19;;;;;;;17.87;9.70;;;6.00;99.90;;;;;;5077493;28;20111;-91
2020/12/22 11:12:01;;;;;;;28.70;18.17;;;6.00;99.90;;;;;;5105596;28;20676;-90
2020/12/22 11:15:02;;;;;;;36.55;24.67;;;5.90;99.90;;;;;;5117035;27;20131;-90
2020/12/22 11:17:44;;;;;;;61.47;32.33;;;6.00;99.90;;;;;;5139036;27;20151;-90
2020/12/22 11:20:45;;;;;;;55.65;30.55;;;6.00;99.90;;;;;;5141982;27;20106;-90
2020/12/22 11:23:27;;;;;;;55.00;32.97;;;6.10;99.90;;;;;;5171506;27;20159;-92
2020/12/22 11:26:27;;;;;;;51.47;28.60;;;6.10;99.90;;;;;;5161403;27;20087;-92
2020/12/22 11:29:10;;;;;;;32.80;21.55;;;6.10;99.90;;;;;;5151810;27;20194;-89
2020/12/22 11:32:10;;;;;;;39.70;26.17;;;6.10;99.90;;;;;;5178080;27;20098;-89
2020/12/22 11:34:55;;;;;;;79.12;50.85;;;6.10;99.90;;;;;;5160821;27;20126;-92
2020/12/22 11:37:54;;;;;;;75.78;46.80;;;6.10;99.90;;;;;;5169297;27;20095;-92
2020/12/22 11:40:39;;;;;;;41.78;25.10;;;6.20;99.90;;;;;;5189566;27;20106;-91
2020/12/22 11:43:38;;;;;;;29.80;20.48;;;6.10;99.90;;;;;;5164559;27;20535;-90
2020/12/22 11:46:17;;;;;;;34.88;23.65;;;6.20;99.90;;;;;;5154814;27;20095;-91
2020/12/22 11:49:20;;;;;;;26.30;18.05;;;6.30;99.90;;;;;;5140781;27;20087;-91
2020/12/22 11:52:16;;;;;;;25.95;14.95;;;6.30;99.90;;;;;;5163085;27;20094;-93
2020/12/22 11:55:14;;;;;;;18.25;9.57;;;6.40;99.90;;;;;;5137889;28;20167;-90
2020/12/22 11:57:56;;;;;;;10.40;5.95;;;6.50;99.90;;;;;;5157583;27;20117;-91
2020/12/22 12:00:54;;;;;;;9.75;4.35;;;6.50;99.90;;;;;;5148342;27;20093;-92
2020/12/22 12:03:51;;;;;;;6.80;3.12;;;6.60;99.90;;;;;;5151910;27;20087;-89
2020/12/22 12:06:36;;;;;;;4.70;2.62;;;6.70;99.90;;;;;;5171322;27;20139;-92
2020/12/22 12:09:37;;;;;;;7.28;2.55;;;6.80;99.90;;;;;;5148351;27;20105;-90
2020/12/22 12:12:20;;;;;;;6.32;3.08;;;6.90;99.90;;;;;;5178593;27;20368;-90
2020/12/22 12:15:17;;;;;;;5.10;2.58;;;7.00;99.90;;;;;;5147244;27;20095;-92
2020/12/22 12:17:57;;;;;;;6.68;2.83;;;7.00;99.90;;;;;;5136812;28;20179;-91
2020/12/22 12:20:49;;;;;;;6.28;2.55;;;7.10;99.90;;;;;;5139512;27;20091;-89
2020/12/22 12:23:28;;;;;;;6.00;2.60;;;7.10;99.90;;;;;;5157043;27;20151;-90
2020/12/22 12:26:24;;;;;;;3.87;2.22;;;7.30;99.90;;;;;;5191998;27;20079;-90
2020/12/22 12:29:07;;;;;;;4.82;2.50;;;7.30;99.90;;;;;;5147095;27;20159;-91
2020/12/22 12:32:06;;;;;;;5.12;2.28;;;7.30;99.90;;;;;;5140055;27;20164;-90
2020/12/22 12:34:48;;;;;;;7.35;3.00;;;7.40;99.90;;;;;;5177210;27;20110;-91
2020/12/22 12:37:39;;;;;;;6.00;3.00;;;7.40;99.90;;;;;;5153973;27;20111;-91
2020/12/22 12:40:18;;;;;;;5.60;2.37;;;7.50;99.90;;;;;;5162887;27;20448;-91
2020/12/22 12:43:17;;;;;;;7.60;2.72;;;7.50;99.90;;;;;;5141782;27;20091;-91
2020/12/22 12:45:56;;;;;;;7.97;2.70;;;7.50;99.90;;;;;;5157863;27;20171;-90
2020/12/22 12:48:38;;;;;;;4.70;2.60;;;7.50;99.90;;;;;;5125882;27;20118;-90
2020/12/22 12:51:17;;;;;;;6.35;2.47;;;7.60;99.90;;;;;;5106548;28;20099;-93
2020/12/22 12:54:12;;;;;;;6.03;2.45;;;7.50;99.90;;;;;;5160947;27;20106;-90
2020/12/22 12:56:50;;;;;;;11.63;2.42;;;7.60;99.90;;;;;;5154762;27;20146;-90
2020/12/22 12:59:48;;;;;;;6.50;3.15;;;7.70;99.90;;;;;;5131764;27;20143;-91
2020/12/22 13:02:27;;;;;;;10.07;2.80;;;7.70;99.90;;;;;;5133800;28;20103;-88
2020/12/22 13:05:29;;;;;;;15.27;8.05;;;7.70;99.90;;;;;;5127076;27;20111;-89
2020/12/22 13:08:11;;;;;;;9.60;3.58;;;7.80;99.90;;;;;;5158526;27;20091;-88
2020/12/22 13:11:11;;;;;;;9.82;5.95;;;7.80;99.90;;;;;;5129823;28;20184;-89
2020/12/22 13:13:52;;;;;;;5.90;3.50;;;7.90;99.90;;;;;;5127757;27;20095;-91
2020/12/22 13:16:44;;;;;;;6.37;2.97;;;7.90;99.90;;;;;;5119208;28;20110;-91
2020/12/22 13:19:26;;;;;;;5.45;2.53;;;7.90;99.90;;;;;;5174992;27;20107;-90
2020/12/22 13:22:25;;;;;;;4.70;2.30;;;8.00;99.90;;;;;;5154193;27;20095;-89
2020/12/22 13:25:10;;;;;;;3.42;1.73;;;8.10;99.90;;;;;;5157693;27;20134;-90
2020/12/22 13:28:06;;;;;;;5.95;2.30;;;8.20;99.90;;;;;;5153241;27;20086;-89
2020/12/22 13:30:48;;;;;;;3.92;2.05;;;8.10;99.90;;;;;;5179220;27;20103;-90
2020/12/22 13:33:47;;;;;;;4.47;2.15;;;8.20;99.90;;;;;;5182732;27;20086;-89
2020/12/22 13:36:28;;;;;;;2.67;1.70;;;8.30;99.90;;;;;;5150381;27;20102;-89
2020/12/22 13:39:28;;;;;;;2.87;1.58;;;8.30;99.90;;;;;;5170593;27;20387;-89
2020/12/22 13:42:11;;;;;;;3.83;2.03;;;8.40;99.90;;;;;;5188398;27;20491;-92
2020/12/22 13:45:15;;;;;;;3.67;1.85;;;8.40;99.90;;;;;;5152760;27;20380;-89
2020/12/22 13:47:59;;;;;;;3.90;1.87;;;8.40;99.90;;;;;;5137456;27;20165;-88
2020/12/22 13:50:52;;;;;;;3.40;2.30;;;8.50;99.90;;;;;;5124902;28;20109;-91
2020/12/22 13:53:32;;;;;;;5.82;2.80;;;8.50;99.90;;;;;;5177400;27;20404;-90
2020/12/22 13:56:26;;;;;;;5.47;2.72;;;8.50;99.90;;;;;;5167477;27;20488;-89
2020/12/22 13:59:08;;;;;;;4.22;2.40;;;8.60;99.90;;;;;;5140899;27;20138;-90
2020/12/22 14:02:05;;;;;;;4.68;2.67;;;8.60;99.90;;;;;;5119238;28;20121;-90
2020/12/22 14:05:04;;;;;;;4.10;2.58;;;8.60;99.90;;;;;;5132545;27;20099;-90
2020/12/22 14:07:47;;;;;;;4.37;2.47;;;8.60;99.90;;;;;;5122736;28;20103;-91
2020/12/22 14:10:47;;;;;;;5.00;2.75;;;8.60;99.90;;;;;;5153503;27;20095;-92
2020/12/22 14:13:29;;;;;;;6.12;3.40;;;8.60;99.90;;;;;;5144142;27;20103;-91
2020/12/22 14:16:26;;;;;;;7.35;3.42;;;8.50;99.90;;;;;;5149732;27;20475;-94
2020/12/22 14:19:10;;;;;;;5.72;2.95;;;8.50;99.90;;;;;;5111891;27;20174;-92
2020/12/22 14:22:05;;;;;;;6.07;3.70;;;8.60;99.90;;;;;;5141885;27;20099;-92
2020/12/22 14:24:47;;;;;;;5.40;3.00;;;8.60;99.90;;;;;;5158760;27;20163;-91
2020/12/22 14:27:45;;;;;;;4.95;3.03;;;8.60;99.90;;;;;;5169541;27;20091;-91
2020/12/22 14:30:27;;;;;;;6.18;3.17;;;8.60;99.90;;;;;;5177991;27;20147;-91
2020/12/22 14:33:25;;;;;;;5.57;3.37;;;8.50;99.90;;;;;;5145086;27;20102;-91
2020/12/22 14:36:07;;;;;;;4.93;2.92;;;8.60;99.90;;;;;;5208767;27;20124;-91
2020/12/22 14:38:58;;;;;;;6.70;2.97;;;8.60;99.90;;;;;;5161532;27;20094;-92
2020/12/22 14:41:36;;;;;;;7.30;3.15;;;8.60;99.90;;;;;;5157582;27;20087;-91